createdAt,value
2016-11-25T00:02:11.360Z,36.6
2016-11-25T00:07:15.587Z,36.6
2016-11-25T00:12:19.820Z,36.5
2016-11-25T00:17:24.043Z,36.5
2016-11-25T00:22:28.174Z,36.5
2016-11-25T00:27:32.290Z,36.3
2016-11-25T00:32:36.410Z,36.3
2016-11-25T00:37:40.837Z,36.3
2016-11-25T00:42:44.924Z,36.3
2016-11-25T00:47:49.006Z,36.2
2016-11-25T00:52:53.766Z,36.2
2016-11-25T00:57:57.851Z,36.2
2016-11-25T01:03:01.936Z,36.2
2016-11-25T01:08:06.025Z,36.2
2016-11-25T01:13:10.117Z,36.1
2016-11-25T01:18:14.203Z,36.1
2016-11-25T01:23:18.627Z,36.1
2016-11-25T01:28:22.713Z,36.1
2016-11-25T01:33:27.139Z,36.1
2016-11-25T01:38:31.932Z,36
2016-11-25T01:43:36.685Z,36
2016-11-25T01:48:40.773Z,36
2016-11-25T01:53:45.194Z,35.9
2016-11-25T01:58:49.610Z,35.9
2016-11-25T02:03:53.699Z,35.8
2016-11-25T02:08:58.132Z,35.8
2016-11-25T02:14:02.228Z,35.8
2016-11-25T02:19:06.656Z,35.8
2016-11-25T02:24:10.739Z,35.8
2016-11-25T02:29:14.836Z,35.7
2016-11-25T02:34:18.927Z,35.7
2016-11-25T02:39:23.349Z,35.7
2016-11-25T02:44:27.793Z,35.6
2016-11-25T02:49:32.223Z,35.5
2016-11-25T02:54:36.314Z,35.5
2016-11-25T02:59:40.407Z,35.5
2016-11-25T03:04:44.842Z,35.5
2016-11-25T03:09:48.939Z,35.4
2016-11-25T03:14:53.040Z,35.4
2016-11-25T03:19:57.470Z,35.4
2016-11-25T03:25:01.914Z,35.4
2016-11-25T03:30:06.335Z,35.4
2016-11-25T03:35:10.433Z,35.3
2016-11-25T03:40:15.193Z,35.2
2016-11-25T03:45:19.488Z,35.2
2016-11-25T03:50:23.580Z,35.2
2016-11-25T03:55:27.665Z,35.1
2016-11-25T04:00:31.753Z,35.1
2016-11-25T04:05:36.192Z,35.1
2016-11-25T04:10:40.629Z,35
2016-11-25T04:15:44.723Z,35
2016-11-25T04:20:48.819Z,35
2016-11-25T04:25:53.245Z,35
2016-11-25T04:30:58.010Z,35
2016-11-25T04:36:02.106Z,35
2016-11-25T04:41:06.206Z,34.9
2016-11-25T04:46:10.306Z,34.9
2016-11-25T04:51:14.406Z,34.9
2016-11-25T04:56:18.498Z,34.9
2016-11-25T05:01:22.932Z,34.9
2016-11-25T05:06:27.036Z,34.9
2016-11-25T05:11:31.126Z,34.8
2016-11-25T05:16:35.221Z,34.8
2016-11-25T05:21:39.647Z,34.8
2016-11-25T05:26:44.073Z,34.7
2016-11-25T05:31:48.172Z,34.7
2016-11-25T05:36:52.649Z,34.7
2016-11-25T05:41:56.749Z,34.7
2016-11-25T05:47:00.850Z,34.6
2016-11-25T05:52:05.610Z,34.7
2016-11-25T05:57:10.044Z,34.9
2016-11-25T06:02:14.477Z,35.2
2016-11-25T06:07:18.904Z,36.1
2016-11-25T06:12:22.995Z,36.6
2016-11-25T06:17:27.085Z,37
2016-11-25T06:22:31.190Z,37.3
2016-11-25T06:27:35.999Z,37.6
2016-11-25T06:32:41.100Z,37.8
2016-11-25T06:37:45.531Z,37.8
2016-11-25T06:42:49.633Z,37.7
2016-11-25T06:47:54.079Z,37.5
2016-11-25T06:52:59.176Z,37.2
2016-11-25T06:58:03.574Z,37.1
2016-11-25T07:03:07.671Z,36.6
2016-11-25T07:08:11.768Z,35.9
2016-11-25T07:13:15.885Z,35.1
2016-11-25T07:18:20.304Z,35.2
2016-11-25T07:23:24.436Z,35.2
2016-11-25T07:28:28.571Z,35.2
2016-11-25T07:33:33.001Z,36.1
2016-11-25T07:38:37.439Z,35.2
2016-11-25T07:43:41.876Z,34.8
2016-11-25T07:48:45.974Z,34.6
2016-11-25T07:53:50.077Z,34.9
2016-11-25T07:58:54.176Z,34.9
2016-11-25T08:03:58.275Z,34.8
2016-11-25T08:09:02.711Z,34.8
2016-11-25T08:14:22.028Z,35
2016-11-25T08:19:26.466Z,35
2016-11-25T08:24:31.278Z,35
2016-11-25T08:29:35.737Z,34.9
2016-11-25T08:34:39.837Z,34.9
2016-11-25T08:39:44.278Z,34.9
2016-11-25T08:44:48.711Z,35.2
2016-11-25T08:49:52.819Z,35.1
2016-11-25T08:54:56.911Z,35.1
2016-11-25T09:00:01.343Z,35
2016-11-25T09:05:05.434Z,35.1
2016-11-25T09:10:09.547Z,35.1
2016-11-25T09:15:13.989Z,35.1
2016-11-25T09:20:18.081Z,35.2
2016-11-25T09:25:22.194Z,35.1
2016-11-25T09:30:26.290Z,35.1
2016-11-25T09:35:30.395Z,35
2016-11-25T09:40:34.497Z,35
2016-11-25T09:45:38.596Z,35
2016-11-25T09:50:43.361Z,34.9
2016-11-25T09:55:47.798Z,34.9
2016-11-25T10:00:52.240Z,35
2016-11-25T10:05:56.339Z,35.3
2016-11-25T10:11:00.436Z,35.6
2016-11-25T10:16:04.885Z,35.8
2016-11-25T10:21:08.992Z,35.9
2016-11-25T10:26:13.093Z,36
2016-11-25T10:31:17.197Z,36.1
2016-11-25T10:36:21.623Z,36.1
2016-11-25T10:41:26.054Z,36.1
2016-11-25T10:46:30.153Z,36.1
2016-11-25T10:51:34.253Z,36.1
2016-11-25T10:56:38.698Z,36.1
2016-11-25T11:01:43.472Z,36.1
2016-11-25T11:06:47.577Z,36.2
2016-11-25T11:11:51.668Z,36.1
2016-11-25T11:16:55.768Z,36.1
2016-11-25T11:22:00.201Z,36.1
2016-11-25T11:27:04.294Z,36.2
2016-11-25T11:32:08.725Z,36.1
2016-11-25T11:37:13.495Z,36.2
2016-11-25T11:42:17.927Z,36.4
2016-11-25T11:47:22.030Z,36.5
2016-11-25T11:52:26.126Z,36.5
2016-11-25T11:57:30.219Z,36.5
2016-11-25T12:02:34.651Z,36.5
2016-11-25T12:07:38.751Z,36.5
2016-11-25T12:12:42.851Z,36.6
2016-11-25T12:17:46.962Z,36.6
2016-11-25T12:22:51.065Z,36.5
2016-11-25T12:27:55.172Z,36.6
2016-11-25T12:32:59.269Z,36.6
2016-11-25T12:38:03.357Z,36.7
2016-11-25T12:43:07.454Z,36.7
2016-11-25T12:48:11.901Z,36.7
2016-11-25T12:53:16.002Z,36.7
2016-11-25T12:58:20.098Z,36.7
2016-11-25T13:03:24.198Z,36.7
2016-11-25T13:08:28.368Z,36.8
2016-11-25T13:13:32.459Z,36.8
2016-11-25T13:18:37.223Z,36.8
2016-11-25T13:23:42.324Z,36.8
2016-11-25T13:28:46.429Z,36.8
2016-11-25T13:33:50.873Z,37.2
2016-11-25T13:38:55.640Z,37.6
2016-11-25T13:44:00.072Z,38.5
2016-11-25T13:49:04.172Z,38.7
2016-11-25T13:54:08.272Z,38.6
2016-11-25T13:59:12.369Z,38.4
2016-11-25T14:04:16.468Z,38.3
2016-11-25T14:09:20.580Z,38.3
2016-11-25T14:14:25.366Z,38.2
2016-11-25T14:19:29.816Z,38.4
2016-11-25T14:24:34.588Z,37.8
2016-11-25T14:29:39.022Z,37.3
2016-11-25T14:34:43.113Z,37
2016-11-25T14:39:47.215Z,36.8
2016-11-25T14:44:51.665Z,36.7
2016-11-25T14:49:55.764Z,36.7
2016-11-25T14:54:59.864Z,36.6
2016-11-25T15:00:03.959Z,36.7
2016-11-25T15:05:08.398Z,36.7
2016-11-25T15:10:12.853Z,36.7
2016-11-25T15:15:17.297Z,36.8
2016-11-25T15:20:21.732Z,37
2016-11-25T15:25:26.163Z,37.1
2016-11-25T15:30:30.297Z,37.2
2016-11-25T15:35:34.734Z,37.3
2016-11-25T15:40:39.177Z,37.2
2016-11-25T15:45:43.957Z,37
2016-11-25T15:50:48.947Z,37.1
2016-11-25T15:55:53.047Z,37.2
2016-11-25T16:00:57.496Z,37.3
2016-11-25T16:06:01.613Z,37.6
2016-11-25T16:11:05.702Z,37.9
2016-11-25T16:16:09.815Z,38.2
2016-11-25T16:21:13.906Z,37.8
2016-11-25T16:26:18.045Z,37.5
2016-11-25T16:31:23.518Z,37.7
2016-11-25T16:36:28.190Z,37.3
2016-11-25T16:41:32.632Z,37.1
2016-11-25T16:46:36.731Z,37
2016-11-25T16:51:40.830Z,37.1
2016-11-25T16:56:45.267Z,37
2016-11-25T17:01:49.377Z,37
2016-11-25T17:06:53.706Z,37.1
2016-11-25T17:11:57.783Z,37.1
2016-11-25T17:17:02.222Z,37.1
2016-11-25T17:22:06.649Z,37.1
2016-11-25T17:27:10.752Z,37.1
2016-11-25T17:32:14.847Z,37.2
2016-11-25T17:37:18.955Z,37.3
2016-11-25T17:42:23.416Z,37.3
2016-11-25T17:47:27.872Z,37.6
2016-11-25T17:52:31.960Z,37.3
2016-11-25T17:57:36.077Z,37.2
2016-11-25T18:02:40.559Z,37
2016-11-25T18:07:45.198Z,37.1
2016-11-25T18:12:49.297Z,36.9
2016-11-25T18:17:54.105Z,37
2016-11-25T18:23:13.675Z,36.7
2016-11-25T18:28:17.802Z,36.7
2016-11-25T18:33:21.933Z,37
2016-11-25T18:38:26.028Z,37
2016-11-25T18:43:30.131Z,37
2016-11-25T18:48:34.574Z,37.1
2016-11-25T18:53:38.671Z,37.2
2016-11-25T18:58:42.769Z,37.2
2016-11-25T19:03:46.865Z,37.3
2016-11-25T19:08:50.959Z,37.2
2016-11-25T19:13:55.389Z,37.2
2016-11-25T19:18:59.486Z,37.2
2016-11-25T19:24:03.910Z,37.3
2016-11-25T19:29:08.014Z,37.2
2016-11-25T19:34:12.126Z,37.3
2016-11-25T19:39:16.223Z,37.3
2016-11-25T19:44:20.663Z,37.3
2016-11-25T19:49:24.785Z,37.3
2016-11-25T19:54:28.878Z,37.3
2016-11-25T19:59:32.984Z,37.3
2016-11-25T20:04:37.094Z,37.3
2016-11-25T20:09:41.545Z,37.4
2016-11-25T20:14:46.323Z,37.4
2016-11-25T20:19:50.678Z,37.4
2016-11-25T20:24:55.111Z,37.5
2016-11-25T20:29:59.215Z,37.5
2016-11-25T20:35:03.321Z,37.4
2016-11-25T20:40:07.761Z,37.4
2016-11-25T20:45:12.179Z,37.4
2016-11-25T20:50:16.289Z,37.4
2016-11-25T20:55:20.392Z,37.5
2016-11-25T21:00:24.500Z,37.4
2016-11-25T21:05:28.699Z,37.4
2016-11-25T21:10:33.150Z,37.6
2016-11-25T21:15:37.251Z,37.7
2016-11-25T21:20:41.677Z,37.7
2016-11-25T21:25:45.770Z,37.8
2016-11-25T21:30:49.884Z,37.8
2016-11-25T21:35:53.979Z,37.9
2016-11-25T21:40:58.105Z,37.9
2016-11-25T21:46:02.206Z,37.9
2016-11-25T21:51:06.969Z,37.9
2016-11-25T21:56:11.076Z,37.9
2016-11-25T22:01:15.503Z,37.9
2016-11-25T22:06:19.914Z,37.9
2016-11-25T22:11:24.018Z,38.6
2016-11-25T22:16:28.441Z,38.5
2016-11-25T22:21:32.874Z,38.5
2016-11-25T22:26:36.967Z,38.7
2016-11-25T22:31:41.069Z,38.7
2016-11-25T22:36:45.507Z,38.7
2016-11-25T22:41:49.606Z,38.7
2016-11-25T22:46:54.375Z,38.7
2016-11-25T22:51:58.800Z,38.7
2016-11-25T22:57:03.227Z,38.7
2016-11-25T23:02:07.329Z,38.7
2016-11-25T23:07:11.430Z,38.6
2016-11-25T23:12:15.865Z,38.7
2016-11-25T23:17:19.953Z,38.6
2016-11-25T23:22:24.051Z,38.7
2016-11-25T23:27:28.148Z,38.6
2016-11-25T23:32:32.597Z,38.6
2016-11-25T23:37:36.696Z,38.5
2016-11-25T23:42:41.125Z,38.5
2016-11-25T23:47:45.221Z,38.5
2016-11-25T23:52:49.999Z,38.4
2016-11-25T23:57:54.424Z,38.4
